EW6175 Weather Reports


Display with metric or nautical units.
time (UTC)temp
F
wind
direction
speed
MPH
gust
MPH
rain 1hr
in
rain 24hr
in
rain mn
in
humidity
%
barometer
mb
20181214221612 49 289 14.0 28.0 0.00 0.00 0.00 61 1015.8
20181214220033 49 274 12.0 24.0 0.00 0.00 0.00 60 1015.5
20181214214520 50 304 10.0 23.0 0.00 0.00 0.00 60 1015.3
20181214213050 50 281 11.0 23.0 0.00 0.00 0.00 58 1015.1
20181214211528 50 284 12.0 24.0 0.00 0.00 0.00 58 1014.5
20181214210022 51 290 10.0 21.0 0.00 0.00 0.00 59 1014.3
20181214204534 49 292 10.0 26.0 0.00 0.00 0.00 60 1014.3
20181214203057 50 299 10.0 21.0 0.00 0.00 0.00 60 1014.2
20181214201536 50 286 13.0 21.0 0.00 0.00 0.00 59 1014.2
20181214200027 50 268 11.0 21.0 0.00 0.00 0.00 59 1014.0
20181214194517 50 307 11.0 22.0 0.00 0.00 0.00 60 1014.0
20181214193014 51 259 9.0 18.0 0.00 0.00 0.00 59 1013.8
20181214191522 50 290 12.0 25.0 0.00 0.00 0.00 59 1013.9
20181214190016 51 286 11.0 25.0 0.00 0.00 0.00 59 1014.0
20181214184516 51 311 9.0 26.0 0.00 0.00 0.00 59 1014.0
20181214183103 51 292 12.0 22.0 0.00 0.00 0.00 59 1014.2
20181214181506 50 302 11.0 20.0 0.00 0.00 0.00 61 1014.6
20181214180012 50 242 8.0 23.0 0.00 0.00 0.00 63 1014.8
20181214174626 49 298 10.0 19.0 0.00 0.00 0.00 63 1015.0
20181214173121 48 284 9.0 17.0 0.00 0.00 0.00 64 1015.1
20181214171705 48 282 9.0 19.0 0.00 0.00 0.00 64 1015.3
20181214170120 48 259 10.0 19.0 0.00 0.00 0.00 64 1015.4
20181214164629 48 275 9.0 19.0 0.00 0.01 0.00 64 1015.4
20181214163258 48 277 8.0 16.0 0.00 0.01 0.00 64 1015.6
20181214161622 48 294 8.0 16.0 0.00 0.01 0.00 64 1015.7
20181214160134 48 248 8.0 14.0 0.00 0.01 0.00 64 1015.6
20181214154626 47 264 7.0 16.0 0.00 0.01 0.00 65 1015.3
20181214153140 47 262 6.0 16.0 0.00 0.01 0.00 66 1015.0
20181214151620 47 259 7.0 14.0 0.00 0.01 0.00 66 1014.7
20181214150142 46 301 9.0 14.0 0.00 0.01 0.00 66 1014.4
20181214144612 46 262 9.0 16.0 0.00 0.01 0.00 67 1014.0
20181214143114 46 259 9.0 20.0 0.00 0.01 0.00 67 1013.8
20181214141543 45 233 7.0 16.0 0.00 0.01 0.00 68 1013.7
20181214140107 45 295 8.0 21.0 0.00 0.01 0.00 68 1013.5
20181214134535 46 283 8.0 16.0 0.00 0.01 0.00 67 1013.1
20181214133046 46 285 8.0 19.0 0.00 0.01 0.00 66 1012.9
20181214131554 46 263 8.0 17.0 0.00 0.01 0.00 66 1012.9
20181214130113 45 298 8.0 19.0 0.00 0.02 0.00 66 1012.6
20181214124546 46 261 10.0 23.0 0.00 0.02 0.00 65 1012.3
20181214123030 47 294 10.0 22.0 0.00 0.02 0.00 62 1012.1
20181214121513 47 254 6.0 20.0 0.00 0.02 0.00 62 1012.0
20181214120028 47 270 9.0 20.0 0.00 0.43 0.00 61 1011.9
20181214114516 47 275 7.0 16.0 0.00 0.43 0.00 62 1011.9
20181214113004 47 291 7.0 15.0 0.00 0.43 0.00 61 1011.4
20181214111510 47 268 7.0 14.0 0.00 0.43 0.00 61 1011.4
20181214110144 47 257 6.0 17.0 0.00 0.43 0.00 62 1011.5
20181214104633 48 263 9.0 21.0 0.00 0.65 0.00 61 1011.3
20181214103229 48 235 8.0 18.0 0.00 0.65 0.00 59 1011.4
20181214101645 48 249 6.0 16.0 0.00 0.65 0.00 59 1011.3
20181214100127 49 247 6.0 14.0 0.00 0.65 0.00 59 1011.4
20181214094620 48 229 7.0 18.0 0.00 0.65 0.00 59 1011.4
20181214093352 48 274 4.0 10.0 0.00 0.65 0.00 60 1011.3
20181214090130 48 232 6.0 10.0 0.00 0.65 0.00 60 1011.0
20181214084618 48 254 3.0 9.0 0.00 0.65 0.00 59 1011.1
20181214083133 48 284 5.0 15.0 0.00 0.65 0.00 58 1011.1
20181214081601 49 296 8.0 15.0 0.00 0.65 0.00 58 1010.9
20181214080111 49 262 4.0 14.0 0.00 0.65 0.00 58 1011.1
20181214074547 49 237 6.0 15.0 0.00 0.65 0.00 58 1010.9
20181214073113 49 239 7.0 13.0 0.00 0.65 0.00 57 1011.0
20181214071646 49 295 7.0 14.0 0.00 0.65 0.00 57 1011.1
20181214070131 49 243 6.0 14.0 0.00 0.65 0.00 58 1011.0
20181214064627 48 243 5.0 16.0 0.00 0.65 0.00 59 1011.2
20181214063054 48 294 3.0 7.0 0.00 0.65 0.00 59 1011.5
20181214061537 49 265 5.0 9.0 0.00 0.65 0.00 58 1011.3
20181214060050 49 298 4.0 12.0 0.00 0.65 0.65 57 1011.4
20181214054537 49 274 6.0 15.0 0.00 0.65 0.65 56 1011.4
20181214053024 50 313 8.0 19.0 0.00 0.65 0.65 54 1011.7
20181214051542 51 259 8.0 20.0 0.00 0.65 0.65 54 1011.4
20181214050020 51 236 6.0 16.0 0.00 0.65 0.65 53 1011.2
20181214044536 52 292 13.0 25.0 0.00 0.65 0.65 52 1010.9
20181214043013 52 281 4.0 13.0 0.00 0.65 0.65 54 1010.9
20181214041518 53 292 12.0 17.0 0.00 0.65 0.65 52 1010.2
20181214040010 54 309 12.0 21.0 0.00 0.65 0.65 51 1010.6
20181214034737 55 297 11.0 19.0 0.00 0.65 0.65 51 1010.3
20181214033116 56 276 10.0 19.0 0.00 0.65 0.65 50 1009.9
20181214031640 57 279 11.0 23.0 0.00 0.65 0.65 48 1009.8
20181214030109 60 257 11.0 18.0 0.00 0.65 0.65 43 1009.4
20181214024644 62 257 6.0 17.0 0.00 0.65 0.65 40 1008.8
20181214023133 62 252 4.0 10.0 0.00 0.65 0.65 47 1008.6
20181214021600 63 248 3.0 10.0 0.00 0.65 0.65 65 1008.7
20181214020111 62 229 1.0 3.0 0.00 0.65 0.65 74 1008.4
20181214014603 64 259 0.0 4.0 0.00 0.65 0.65 70 1008.2
20181214013104 64 253 1.0 3.0 0.00 0.65 0.65 75 1007.9
20181214011609 64 267 2.0 5.0 0.00 0.65 0.65 80 1007.9
20181214010112 64 225 2.0 7.0 0.00 0.65 0.65 84 1007.8
20181214004544 64 216 3.0 7.0 0.00 0.65 0.65 86 1007.7
20181214003106 64 194 2.0 6.0 0.00 0.65 0.65 86 1007.5
20181214001548 64 203 2.0 7.0 0.00 0.65 0.65 85 1007.3
20181214000113 65 208 4.0 8.0 0.00 0.65 0.65 85 1007.0
20181213234536 66 195 2.0 6.0 0.00 0.65 0.65 84 1006.9
20181213233121 67 197 2.0 6.0 0.00 0.65 0.65 82 1006.8
20181213231545 67 212 3.0 9.0 0.00 0.65 0.65 81 1006.6
20181213230046 68 205 3.0 8.0 0.00 0.65 0.65 81 1006.7
20181213224556 69 227 4.0 8.0 0.00 0.65 0.65 81 1006.6
20181213223032 69 183 4.0 10.0 0.00 0.65 0.65 81 1006.5